sensor_id;sensor_type;location;lat;lon;timestamp;pressure;altitude;pressure_sealevel;temperature;humidity
59337;BME280;45115;52.002;4.686;2022-09-21T00:01:58;102721.34;;;11.28;100.00
59337;BME280;45115;52.002;4.686;2022-09-21T00:04:25;102728.31;;;11.41;100.00
59337;BME280;45115;52.002;4.686;2022-09-21T00:06:52;102727.63;;;11.46;100.00
59337;BME280;45115;52.002;4.686;2022-09-21T00:09:19;102722.44;;;11.39;100.00
59337;BME280;45115;52.002;4.686;2022-09-21T00:11:46;102722.44;;;11.39;100.00
59337;BME280;45115;52.002;4.686;2022-09-21T00:14:13;102716.75;;;11.35;100.00
59337;BME280;45115;52.002;4.686;2022-09-21T00:16:41;102722.50;;;11.32;100.00
59337;BME280;45115;52.002;4.686;2022-09-21T00:19:09;102723.34;;;11.33;100.00
59337;BME280;45115;52.002;4.686;2022-09-21T00:21:37;102708.97;;;11.22;100.00
59337;BME280;45115;52.002;4.686;2022-09-21T00:24:04;102723.19;;;11.27;100.00
59337;BME280;45115;52.002;4.686;2022-09-21T00:26:31;102726.06;;;11.26;100.00
59337;BME280;45115;52.002;4.686;2022-09-21T00:29:00;102722.25;;;11.22;100.00
59337;BME280;45115;52.002;4.686;2022-09-21T00:31:28;102723.72;;;11.18;100.00
59337;BME280;45115;52.002;4.686;2022-09-21T00:33:57;102717.22;;;11.13;100.00
59337;BME280;45115;52.002;4.686;2022-09-21T00:36:25;102719.16;;;11.06;100.00
59337;BME280;45115;52.002;4.686;2022-09-21T00:38:54;102715.13;;;11.03;100.00
59337;BME280;45115;52.002;4.686;2022-09-21T00:41:21;102717.06;;;10.96;100.00
59337;BME280;45115;52.002;4.686;2022-09-21T00:44:09;102705.31;;;10.85;100.00
59337;BME280;45115;52.002;4.686;2022-09-21T00:46:36;102706.88;;;10.74;100.00
59337;BME280;45115;52.002;4.686;2022-09-21T00:49:06;102720.88;;;10.63;100.00
59337;BME280;45115;52.002;4.686;2022-09-21T00:51:33;102713.88;;;10.50;100.00
59337;BME280;45115;52.002;4.686;2022-09-21T00:54:03;102706.63;;;10.39;100.00
59337;BME280;45115;52.002;4.686;2022-09-21T00:56:34;102717.06;;;10.33;100.00
59337;BME280;45115;52.002;4.686;2022-09-21T00:59:02;102713.22;;;10.29;100.00
59337;BME280;45115;52.002;4.686;2022-09-21T01:01:30;102704.13;;;10.25;100.00
59337;BME280;45115;52.002;4.686;2022-09-21T01:04:01;102705.78;;;10.19;100.00
59337;BME280;45115;52.002;4.686;2022-09-21T01:06:33;102725.97;;;10.20;100.00
59337;BME280;45115;52.002;4.686;2022-09-21T01:09:05;102715.81;;;10.17;100.00
59337;BME280;45115;52.002;4.686;2022-09-21T01:11:38;102716.66;;;10.11;100.00
59337;BME280;45115;52.002;4.686;2022-09-21T01:14:25;102711.03;;;10.01;100.00
59337;BME280;45115;52.002;4.686;2022-09-21T01:17:03;102712.78;;;9.88;100.00
59337;BME280;45115;52.002;4.686;2022-09-21T01:19:50;102711.22;;;9.80;100.00
59337;BME280;45115;52.002;4.686;2022-09-21T01:22:27;102708.38;;;9.75;100.00
59337;BME280;45115;52.002;4.686;2022-09-21T01:25:06;102719.03;;;9.68;100.00
59337;BME280;45115;52.002;4.686;2022-09-21T01:27:53;102717.69;;;9.59;100.00
59337;BME280;45115;52.002;4.686;2022-09-21T01:30:29;102709.75;;;9.59;100.00
59337;BME280;45115;52.002;4.686;2022-09-21T01:33:03;102719.00;;;9.75;100.00
59337;BME280;45115;52.002;4.686;2022-09-21T01:35:37;102724.97;;;9.64;100.00
59337;BME280;45115;52.002;4.686;2022-09-21T01:38:08;102712.88;;;9.42;100.00
59337;BME280;45115;52.002;4.686;2022-09-21T01:40:38;102723.75;;;9.34;100.00
59337;BME280;45115;52.002;4.686;2022-09-21T01:43:09;102717.69;;;9.20;100.00
59337;BME280;45115;52.002;4.686;2022-09-21T01:45:44;102723.03;;;9.13;100.00
59337;BME280;45115;52.002;4.686;2022-09-21T01:48:13;102719.81;;;8.98;100.00
59337;BME280;45115;52.002;4.686;2022-09-21T01:50:44;102721.06;;;8.95;100.00
59337;BME280;45115;52.002;4.686;2022-09-21T01:53:16;102718.25;;;8.76;100.00
59337;BME280;45115;52.002;4.686;2022-09-21T01:55:47;102715.84;;;8.68;100.00
59337;BME280;45115;52.002;4.686;2022-09-21T01:58:18;102714.44;;;8.66;100.00
59337;BME280;45115;52.002;4.686;2022-09-21T02:00:49;102705.09;;;8.56;100.00
59337;BME280;45115;52.002;4.686;2022-09-21T02:03:23;102718.72;;;8.53;100.00
59337;BME280;45115;52.002;4.686;2022-09-21T02:05:52;102711.19;;;8.43;100.00
59337;BME280;45115;52.002;4.686;2022-09-21T02:08:19;102717.50;;;8.35;100.00
59337;BME280;45115;52.002;4.686;2022-09-21T02:10:48;102715.28;;;8.32;100.00
59337;BME280;45115;52.002;4.686;2022-09-21T02:13:17;102714.91;;;8.22;100.00
59337;BME280;45115;52.002;4.686;2022-09-21T02:16:00;102716.91;;;8.20;100.00
59337;BME280;45115;52.002;4.686;2022-09-21T02:18:42;102716.50;;;8.16;100.00
59337;BME280;45115;52.002;4.686;2022-09-21T02:21:15;102725.28;;;8.17;100.00
59337;BME280;45115;52.002;4.686;2022-09-21T02:23:51;102723.63;;;8.22;100.00
59337;BME280;45115;52.002;4.686;2022-09-21T02:26:25;102720.78;;;8.24;100.00
59337;BME280;45115;52.002;4.686;2022-09-21T02:29:00;102715.88;;;8.21;100.00
59337;BME280;45115;52.002;4.686;2022-09-21T02:31:37;102717.34;;;8.10;100.00
59337;BME280;45115;52.002;4.686;2022-09-21T02:34:11;102717.53;;;8.02;100.00
59337;BME280;45115;52.002;4.686;2022-09-21T02:36:44;102724.44;;;8.03;100.00
59337;BME280;45115;52.002;4.686;2022-09-21T02:39:16;102718.34;;;8.02;100.00
59337;BME280;45115;52.002;4.686;2022-09-21T02:41:51;102718.53;;;8.01;100.00
59337;BME280;45115;52.002;4.686;2022-09-21T02:44:28;102708.81;;;8.01;100.00
59337;BME280;45115;52.002;4.686;2022-09-21T02:47:02;102713.25;;;8.01;100.00
59337;BME280;45115;52.002;4.686;2022-09-21T02:49:33;102708.38;;;7.91;100.00
59337;BME280;45115;52.002;4.686;2022-09-21T02:52:06;102707.38;;;7.98;100.00
59337;BME280;45115;52.002;4.686;2022-09-21T02:54:36;102709.81;;;8.07;100.00
59337;BME280;45115;52.002;4.686;2022-09-21T02:57:04;102701.25;;;7.98;100.00
59337;BME280;45115;52.002;4.686;2022-09-21T02:59:32;102711.84;;;7.98;100.00
59337;BME280;45115;52.002;4.686;2022-09-21T03:02:00;102692.53;;;7.84;100.00
59337;BME280;45115;52.002;4.686;2022-09-21T03:04:28;102709.59;;;7.81;100.00
59337;BME280;45115;52.002;4.686;2022-09-21T03:06:54;102707.75;;;7.68;100.00
59337;BME280;45115;52.002;4.686;2022-09-21T03:09:22;102703.66;;;7.59;100.00
59337;BME280;45115;52.002;4.686;2022-09-21T03:11:49;102708.75;;;7.61;100.00
59337;BME280;45115;52.002;4.686;2022-09-21T03:14:15;102706.13;;;7.61;100.00
59337;BME280;45115;52.002;4.686;2022-09-21T03:16:43;102714.88;;;7.75;100.00
59337;BME280;45115;52.002;4.686;2022-09-21T03:19:12;102720.75;;;7.77;100.00
59337;BME280;45115;52.002;4.686;2022-09-21T03:21:39;102727.66;;;7.84;100.00
59337;BME280;45115;52.002;4.686;2022-09-21T03:24:06;102720.56;;;7.85;100.00
59337;BME280;45115;52.002;4.686;2022-09-21T03:26:32;102724.03;;;7.79;100.00
59337;BME280;45115;52.002;4.686;2022-09-21T03:29:01;102717.47;;;7.61;100.00
59337;BME280;45115;52.002;4.686;2022-09-21T03:31:29;102716.06;;;7.58;100.00
59337;BME280;45115;52.002;4.686;2022-09-21T03:33:56;102726.00;;;7.56;100.00
59337;BME280;45115;52.002;4.686;2022-09-21T03:36:25;102729.47;;;7.50;100.00
59337;BME280;45115;52.002;4.686;2022-09-21T03:38:52;102725.38;;;7.48;100.00
59337;BME280;45115;52.002;4.686;2022-09-21T03:41:24;102718.06;;;7.36;100.00
59337;BME280;45115;52.002;4.686;2022-09-21T03:43:51;102731.69;;;7.47;100.00
59337;BME280;45115;52.002;4.686;2022-09-21T03:46:18;102735.13;;;7.47;100.00
59337;BME280;45115;52.002;4.686;2022-09-21T03:48:46;102736.34;;;7.44;100.00
59337;BME280;45115;52.002;4.686;2022-09-21T03:51:13;102733.47;;;7.39;100.00
59337;BME280;45115;52.002;4.686;2022-09-21T03:53:41;102739.56;;;7.33;100.00
59337;BME280;45115;52.002;4.686;2022-09-21T03:56:08;102733.91;;;7.43;100.00
59337;BME280;45115;52.002;4.686;2022-09-21T03:58:34;102735.34;;;7.46;100.00
59337;BME280;45115;52.002;4.686;2022-09-21T04:01:01;102737.16;;;7.45;100.00
59337;BME280;45115;52.002;4.686;2022-09-21T04:03:28;102733.06;;;7.36;100.00
59337;BME280;45115;52.002;4.686;2022-09-21T04:05:55;102734.50;;;7.38;100.00
59337;BME280;45115;52.002;4.686;2022-09-21T04:08:22;102740.38;;;7.34;100.00
59337;BME280;45115;52.002;4.686;2022-09-21T04:10:50;102732.66;;;7.32;100.00
59337;BME280;45115;52.002;4.686;2022-09-21T04:13:16;102735.91;;;7.27;100.00
59337;BME280;45115;52.002;4.686;2022-09-21T04:15:43;102732.59;;;7.18;100.00
59337;BME280;45115;52.002;4.686;2022-09-21T04:18:10;102729.13;;;7.11;100.00
59337;BME280;45115;52.002;4.686;2022-09-21T04:20:37;102727.88;;;7.07;100.00
59337;BME280;45115;52.002;4.686;2022-09-21T04:23:05;102729.72;;;7.07;100.00
59337;BME280;45115;52.002;4.686;2022-09-21T04:25:34;102732.78;;;7.10;100.00
59337;BME280;45115;52.002;4.686;2022-09-21T04:28:02;102729.72;;;7.13;100.00
59337;BME280;45115;52.002;4.686;2022-09-21T04:30:29;102731.16;;;7.16;100.00
59337;BME280;45115;52.002;4.686;2022-09-21T04:32:58;102735.69;;;7.22;100.00
59337;BME280;45115;52.002;4.686;2022-09-21T04:35:24;102737.09;;;7.31;100.00
59337;BME280;45115;52.002;4.686;2022-09-21T04:37:53;102734.69;;;7.37;100.00
59337;BME280;45115;52.002;4.686;2022-09-21T04:40:20;102737.16;;;7.45;100.00
59337;BME280;45115;52.002;4.686;2022-09-21T04:42:50;102737.00;;;7.53;100.00
59337;BME280;45115;52.002;4.686;2022-09-21T04:45:18;102733.31;;;7.61;100.00
59337;BME280;45115;52.002;4.686;2022-09-21T04:47:45;102739.25;;;7.70;100.00
59337;BME280;45115;52.002;4.686;2022-09-21T04:50:11;102729.50;;;7.70;100.00
59337;BME280;45115;52.002;4.686;2022-09-21T04:52:38;102735.38;;;7.79;100.00
59337;BME280;45115;52.002;4.686;2022-09-21T04:55:06;102737.66;;;7.82;100.00
59337;BME280;45115;52.002;4.686;2022-09-21T04:57:33;102738.66;;;7.81;100.00
59337;BME280;45115;52.002;4.686;2022-09-21T05:00:01;102739.25;;;7.83;100.00
59337;BME280;45115;52.002;4.686;2022-09-21T05:02:29;102741.09;;;7.76;100.00
59337;BME280;45115;52.002;4.686;2022-09-21T05:04:56;102735.19;;;7.67;100.00
59337;BME280;45115;52.002;4.686;2022-09-21T05:07:22;102741.25;;;7.54;100.00
59337;BME280;45115;52.002;4.686;2022-09-21T05:09:49;102740.63;;;7.46;100.00
59337;BME280;45115;52.002;4.686;2022-09-21T05:12:32;102734.47;;;7.31;100.00
59337;BME280;45115;52.002;4.686;2022-09-21T05:14:59;102735.69;;;7.29;100.00
59337;BME280;45115;52.002;4.686;2022-09-21T05:17:26;102739.13;;;7.23;100.00
59337;BME280;45115;52.002;4.686;2022-09-21T05:19:54;102742.78;;;7.22;100.00
59337;BME280;45115;52.002;4.686;2022-09-21T05:22:21;102725.28;;;7.14;100.00
59337;BME280;45115;52.002;4.686;2022-09-21T05:24:48;102747.66;;;7.25;100.00
59337;BME280;45115;52.002;4.686;2022-09-21T05:27:15;102745.00;;;7.18;100.00
59337;BME280;45115;52.002;4.686;2022-09-21T05:29:42;102743.94;;;7.12;100.00
59337;BME280;45115;52.002;4.686;2022-09-21T05:32:12;102742.53;;;7.16;100.00
59337;BME280;45115;52.002;4.686;2022-09-21T05:34:51;102745.66;;;7.34;100.00
59337;BME280;45115;52.002;4.686;2022-09-21T05:40:16;102744.88;;;7.40;100.00
59337;BME280;45115;52.002;4.686;2022-09-21T05:42:43;102744.69;;;7.48;100.00
59337;BME280;45115;52.002;4.686;2022-09-21T05:45:13;102736.16;;;7.53;100.00
59337;BME280;45115;52.002;4.686;2022-09-21T05:47:49;102746.75;;;7.73;100.00
59337;BME280;45115;52.002;4.686;2022-09-21T05:50:27;102756.75;;;7.91;100.00
59337;BME280;45115;52.002;4.686;2022-09-21T05:53:13;102748.03;;;8.24;100.00
59337;BME280;45115;52.002;4.686;2022-09-21T05:55:52;102757.56;;;8.46;100.00
59337;BME280;45115;52.002;4.686;2022-09-21T05:58:27;102752.50;;;8.58;100.00
59337;BME280;45115;52.002;4.686;2022-09-21T06:01:12;102767.72;;;8.83;100.00
59337;BME280;45115;52.002;4.686;2022-09-21T06:03:42;102764.25;;;8.82;100.00
59337;BME280;45115;52.002;4.686;2022-09-21T06:06:09;102774.63;;;8.90;100.00
59337;BME280;45115;52.002;4.686;2022-09-21T06:08:37;102771.16;;;8.97;100.00
59337;BME280;45115;52.002;4.686;2022-09-21T06:11:04;102772.97;;;9.03;100.00
59337;BME280;45115;52.002;4.686;2022-09-21T06:13:31;102775.16;;;9.13;100.00
59337;BME280;45115;52.002;4.686;2022-09-21T06:16:00;102769.25;;;9.17;100.00
59337;BME280;45115;52.002;4.686;2022-09-21T06:18:27;102776.34;;;9.30;100.00
59337;BME280;45115;52.002;4.686;2022-09-21T06:20:54;102776.69;;;9.41;100.00
59337;BME280;45115;52.002;4.686;2022-09-21T06:23:21;102757.16;;;9.35;100.00
59337;BME280;45115;52.002;4.686;2022-09-21T06:25:51;102781.13;;;9.47;100.00
59337;BME280;45115;52.002;4.686;2022-09-21T06:28:18;102768.69;;;9.48;100.00
59337;BME280;45115;52.002;4.686;2022-09-21T06:30:49;102769.91;;;9.45;100.00
59337;BME280;45115;52.002;4.686;2022-09-21T06:33:16;102775.81;;;9.54;100.00
59337;BME280;45115;52.002;4.686;2022-09-21T06:35:51;102774.13;;;9.60;100.00
59337;BME280;45115;52.002;4.686;2022-09-21T06:38:33;102778.41;;;9.61;100.00
59337;BME280;45115;52.002;4.686;2022-09-21T06:41:03;102777.44;;;9.55;100.00
59337;BME280;45115;52.002;4.686;2022-09-21T06:43:31;102772.75;;;9.50;100.00
59337;BME280;45115;52.002;4.686;2022-09-21T06:45:59;102777.66;;;9.47;100.00
59337;BME280;45115;52.002;4.686;2022-09-21T06:48:27;102780.94;;;9.49;100.00
59337;BME280;45115;52.002;4.686;2022-09-21T06:50:56;102780.47;;;9.59;100.00
59337;BME280;45115;52.002;4.686;2022-09-21T06:53:23;102779.66;;;9.90;100.00
59337;BME280;45115;52.002;4.686;2022-09-21T06:55:50;102785.09;;;10.28;100.00
59337;BME280;45115;52.002;4.686;2022-09-21T06:58:18;102768.91;;;10.61;100.00
59337;BME280;45115;52.002;4.686;2022-09-21T07:00:45;102778.03;;;11.03;100.00
59337;BME280;45115;52.002;4.686;2022-09-21T07:03:11;102795.16;;;11.56;100.00
59337;BME280;45115;52.002;4.686;2022-09-21T07:05:38;102795.09;;;12.06;100.00
59337;BME280;45115;52.002;4.686;2022-09-21T07:08:05;102794.66;;;12.33;100.00
59337;BME280;45115;52.002;4.686;2022-09-21T07:10:32;102800.78;;;12.69;100.00
59337;BME280;45115;52.002;4.686;2022-09-21T07:13:01;102793.13;;;12.85;100.00
59337;BME280;45115;52.002;4.686;2022-09-21T07:15:30;102777.16;;;12.73;100.00
59337;BME280;45115;52.002;4.686;2022-09-21T07:17:57;102779.91;;;12.90;100.00
59337;BME280;45115;52.002;4.686;2022-09-21T07:20:23;102777.66;;;13.11;100.00
59337;BME280;45115;52.002;4.686;2022-09-21T07:22:50;102771.59;;;13.15;100.00
59337;BME280;45115;52.002;4.686;2022-09-21T07:25:17;102763.13;;;13.31;100.00
59337;BME280;45115;52.002;4.686;2022-09-21T07:27:44;102770.72;;;13.39;100.00
59337;BME280;45115;52.002;4.686;2022-09-21T07:30:12;102761.47;;;13.29;100.00
59337;BME280;45115;52.002;4.686;2022-09-21T07:32:40;102767.56;;;13.54;100.00
59337;BME280;45115;52.002;4.686;2022-09-21T07:35:08;102764.75;;;14.52;100.00
59337;BME280;45115;52.002;4.686;2022-09-21T07:37:36;102769.09;;;15.20;96.89
59337;BME280;45115;52.002;4.686;2022-09-21T07:40:03;102767.09;;;15.65;93.10
59337;BME280;45115;52.002;4.686;2022-09-21T07:42:30;102758.31;;;15.42;91.35
59337;BME280;45115;52.002;4.686;2022-09-21T07:44:57;102762.22;;;15.01;92.93
59337;BME280;45115;52.002;4.686;2022-09-21T07:47:24;102761.91;;;14.58;95.91
59337;BME280;45115;52.002;4.686;2022-09-21T07:49:53;102758.06;;;14.49;96.44
59337;BME280;45115;52.002;4.686;2022-09-21T07:52:20;102760.66;;;14.44;96.26
59337;BME280;45115;52.002;4.686;2022-09-21T07:54:46;102755.84;;;14.46;94.47
59337;BME280;45115;52.002;4.686;2022-09-21T07:57:13;102749.09;;;14.60;97.62
59337;BME280;45115;52.002;4.686;2022-09-21T07:59:57;102761.56;;;14.94;96.26
59337;BME280;45115;52.002;4.686;2022-09-21T08:02:25;102758.63;;;15.18;94.92
59337;BME280;45115;52.002;4.686;2022-09-21T08:04:53;102764.72;;;15.41;92.78
59337;BME280;45115;52.002;4.686;2022-09-21T08:07:19;102761.97;;;15.58;90.65
59337;BME280;45115;52.002;4.686;2022-09-21T08:09:46;102763.25;;;15.83;88.10
59337;BME280;45115;52.002;4.686;2022-09-21T08:12:15;102762.13;;;16.17;84.08
59337;BME280;45115;52.002;4.686;2022-09-21T08:14:43;102762.84;;;16.45;83.48
59337;BME280;45115;52.002;4.686;2022-09-21T08:17:10;102773.44;;;16.83;80.36
59337;BME280;45115;52.002;4.686;2022-09-21T08:19:36;102775.66;;;17.02;78.47
59337;BME280;45115;52.002;4.686;2022-09-21T08:22:05;102775.97;;;17.10;75.39
59337;BME280;45115;52.002;4.686;2022-09-21T08:24:32;102780.59;;;17.25;74.98
59337;BME280;45115;52.002;4.686;2022-09-21T08:26:59;102772.00;;;17.29;74.26
59337;BME280;45115;52.002;4.686;2022-09-21T08:29:26;102785.44;;;17.55;73.56
59337;BME280;45115;52.002;4.686;2022-09-21T08:31:53;102777.41;;;17.75;70.46
59337;BME280;45115;52.002;4.686;2022-09-21T08:34:20;102784.63;;;17.85;68.21
59337;BME280;45115;52.002;4.686;2022-09-21T08:36:47;102779.00;;;17.76;68.41
59337;BME280;45115;52.002;4.686;2022-09-21T08:39:15;102783.84;;;17.59;67.81
59337;BME280;45115;52.002;4.686;2022-09-21T08:41:52;102787.06;;;17.76;68.72
59337;BME280;45115;52.002;4.686;2022-09-21T08:44:24;102783.59;;;17.91;67.52
59337;BME280;45115;52.002;4.686;2022-09-21T08:47:00;102783.84;;;18.16;66.99
59337;BME280;45115;52.002;4.686;2022-09-21T08:49:30;102795.34;;;18.37;67.43
59337;BME280;45115;52.002;4.686;2022-09-21T08:52:02;102790.47;;;18.50;66.02
59337;BME280;45115;52.002;4.686;2022-09-21T08:54:34;102788.88;;;18.43;64.39
59337;BME280;45115;52.002;4.686;2022-09-21T08:57:04;102789.97;;;18.32;63.17
59337;BME280;45115;52.002;4.686;2022-09-21T08:59:44;102788.13;;;18.27;63.00
59337;BME280;45115;52.002;4.686;2022-09-21T09:02:41;102795.13;;;17.87;63.97
59337;BME280;45115;52.002;4.686;2022-09-21T09:05:31;102798.06;;;17.38;65.21
59337;BME280;45115;52.002;4.686;2022-09-21T09:08:21;102799.41;;;17.36;64.13
59337;BME280;45115;52.002;4.686;2022-09-21T09:11:03;102795.94;;;17.66;62.57
59337;BME280;45115;52.002;4.686;2022-09-21T09:13:49;102798.63;;;17.92;61.11
59337;BME280;45115;52.002;4.686;2022-09-21T09:16:24;102799.41;;;18.24;61.46
59337;BME280;45115;52.002;4.686;2022-09-21T09:18:59;102801.03;;;18.20;61.88
59337;BME280;45115;52.002;4.686;2022-09-21T09:21:31;102804.25;;;18.22;61.99
59337;BME280;45115;52.002;4.686;2022-09-21T09:24:02;102798.88;;;17.96;60.46
59337;BME280;45115;52.002;4.686;2022-09-21T09:26:35;102803.16;;;18.23;61.39
59337;BME280;45115;52.002;4.686;2022-09-21T09:29:13;102813.38;;;17.95;60.62
59337;BME280;45115;52.002;4.686;2022-09-21T09:31:44;102799.41;;;17.72;60.05
59337;BME280;45115;52.002;4.686;2022-09-21T09:34:14;102802.91;;;17.73;59.88
59337;BME280;45115;52.002;4.686;2022-09-21T09:36:45;102791.91;;;17.69;60.93
59337;BME280;45115;52.002;4.686;2022-09-21T09:39:13;102799.09;;;17.37;61.90
59337;BME280;45115;52.002;4.686;2022-09-21T09:41:51;102795.06;;;17.35;61.20
59337;BME280;45115;52.002;4.686;2022-09-21T09:44:53;102794.84;;;17.52;59.72
59337;BME280;45115;52.002;4.686;2022-09-21T09:47:33;102789.16;;;17.22;62.20
59337;BME280;45115;52.002;4.686;2022-09-21T09:50:07;102796.97;;;17.39;62.38
59337;BME280;45115;52.002;4.686;2022-09-21T09:52:36;102795.09;;;17.61;63.04
59337;BME280;45115;52.002;4.686;2022-09-21T09:55:13;102794.03;;;17.88;60.99
59337;BME280;45115;52.002;4.686;2022-09-21T09:57:42;102789.22;;;18.21;61.59
59337;BME280;45115;52.002;4.686;2022-09-21T10:00:13;102792.44;;;18.18;60.97
59337;BME280;45115;52.002;4.686;2022-09-21T10:02:48;102798.59;;;18.29;61.67
59337;BME280;45115;52.002;4.686;2022-09-21T10:05:21;102792.44;;;18.13;58.62
59337;BME280;45115;52.002;4.686;2022-09-21T10:07:49;102791.91;;;18.21;60.39
59337;BME280;45115;52.002;4.686;2022-09-21T10:10:30;102805.31;;;18.37;58.85
59337;BME280;45115;52.002;4.686;2022-09-21T10:13:09;102793.25;;;17.92;59.24
59337;BME280;45115;52.002;4.686;2022-09-21T10:15:41;102799.13;;;18.00;56.65
59337;BME280;45115;52.002;4.686;2022-09-21T10:18:20;102800.22;;;17.73;56.77
59337;BME280;45115;52.002;4.686;2022-09-21T10:20:54;102795.88;;;17.25;57.79
59337;BME280;45115;52.002;4.686;2022-09-21T10:23:21;102783.56;;;17.39;60.19
59337;BME280;45115;52.002;4.686;2022-09-21T10:25:53;102784.63;;;17.80;59.22
59337;BME280;45115;52.002;4.686;2022-09-21T10:28:22;102797.81;;;18.08;55.38
59337;BME280;45115;52.002;4.686;2022-09-21T10:31:07;102792.84;;;18.62;54.95
59337;BME280;45115;52.002;4.686;2022-09-21T10:33:45;102784.50;;;18.68;55.79
59337;BME280;45115;52.002;4.686;2022-09-21T10:36:25;102767.38;;;18.38;55.96
59337;BME280;45115;52.002;4.686;2022-09-21T10:38:52;102789.47;;;18.25;56.42
59337;BME280;45115;52.002;4.686;2022-09-21T10:41:19;102781.34;;;18.51;57.58
59337;BME280;45115;52.002;4.686;2022-09-21T10:43:48;102767.78;;;18.77;56.35
59337;BME280;45115;52.002;4.686;2022-09-21T10:46:16;102770.63;;;19.01;57.40
59337;BME280;45115;52.002;4.686;2022-09-21T10:48:44;102780.56;;;18.40;57.19
59337;BME280;45115;52.002;4.686;2022-09-21T10:51:25;102784.78;;;18.56;57.47
59337;BME280;45115;52.002;4.686;2022-09-21T10:53:53;102772.66;;;18.69;57.61
59337;BME280;45115;52.002;4.686;2022-09-21T10:56:20;102778.22;;;18.94;55.97
59337;BME280;45115;52.002;4.686;2022-09-21T10:59:10;102766.31;;;19.10;55.86
59337;BME280;45115;52.002;4.686;2022-09-21T11:01:42;102776.28;;;19.05;54.94
59337;BME280;45115;52.002;4.686;2022-09-21T11:04:15;102770.84;;;19.50;54.42
59337;BME280;45115;52.002;4.686;2022-09-21T11:06:46;102773.38;;;19.71;53.19
59337;BME280;45115;52.002;4.686;2022-09-21T11:09:18;102769.44;;;19.23;52.51
59337;BME280;45115;52.002;4.686;2022-09-21T11:11:51;102765.22;;;18.51;51.89
59337;BME280;45115;52.002;4.686;2022-09-21T11:14:31;102762.91;;;18.84;51.40
59337;BME280;45115;52.002;4.686;2022-09-21T11:17:02;102772.97;;;19.88;52.01
59337;BME280;45115;52.002;4.686;2022-09-21T11:19:37;102776.47;;;20.67;49.36
59337;BME280;45115;52.002;4.686;2022-09-21T11:22:11;102773.66;;;21.16;49.16
59337;BME280;45115;52.002;4.686;2022-09-21T11:24:47;102776.19;;;21.26;46.42
59337;BME280;45115;52.002;4.686;2022-09-21T11:27:20;102767.75;;;20.94;46.51
59337;BME280;45115;52.002;4.686;2022-09-21T11:29:57;102763.00;;;21.05;45.93
59337;BME280;45115;52.002;4.686;2022-09-21T11:32:49;102771.81;;;21.30;44.75
59337;BME280;45115;52.002;4.686;2022-09-21T11:35:32;102756.44;;;21.11;45.03
59337;BME280;45115;52.002;4.686;2022-09-21T11:38:17;102772.34;;;21.13;46.27
59337;BME280;45115;52.002;4.686;2022-09-21T11:41:06;102761.16;;;20.13;45.00
59337;BME280;45115;52.002;4.686;2022-09-21T11:43:40;102761.44;;;19.82;47.03
59337;BME280;45115;52.002;4.686;2022-09-21T11:46:20;102757.59;;;19.59;45.25
59337;BME280;45115;52.002;4.686;2022-09-21T11:49:04;102759.47;;;19.63;46.56
59337;BME280;45115;52.002;4.686;2022-09-21T11:51:44;102753.28;;;20.17;45.88
59337;BME280;45115;52.002;4.686;2022-09-21T11:54:36;102757.25;;;20.93;46.34
59337;BME280;45115;52.002;4.686;2022-09-21T11:57:12;102759.38;;;21.15;43.63
59337;BME280;45115;52.002;4.686;2022-09-21T12:00:03;102744.19;;;21.00;44.85
59337;BME280;45115;52.002;4.686;2022-09-21T12:02:57;102748.19;;;21.03;45.12
59337;BME280;45115;52.002;4.686;2022-09-21T12:05:30;102745.28;;;20.99;44.66
59337;BME280;45115;52.002;4.686;2022-09-21T12:08:19;102737.56;;;20.92;44.32
59337;BME280;45115;52.002;4.686;2022-09-21T12:10:56;102734.22;;;20.13;45.49
59337;BME280;45115;52.002;4.686;2022-09-21T12:13:32;102736.22;;;19.38;47.67
59337;BME280;45115;52.002;4.686;2022-09-21T12:16:05;102737.63;;;18.85;50.30
59337;BME280;45115;52.002;4.686;2022-09-21T12:18:45;102731.88;;;18.52;51.39
59337;BME280;45115;52.002;4.686;2022-09-21T12:21:19;102719.53;;;18.51;51.69
59337;BME280;45115;52.002;4.686;2022-09-21T12:23:50;102726.28;;;18.93;50.83
59337;BME280;45115;52.002;4.686;2022-09-21T12:26:18;102729.22;;;19.72;48.09
59337;BME280;45115;52.002;4.686;2022-09-21T12:28:49;102726.84;;;20.43;46.08
59337;BME280;45115;52.002;4.686;2022-09-21T12:31:20;102727.13;;;20.86;44.73
59337;BME280;45115;52.002;4.686;2022-09-21T12:33:55;102726.94;;;21.34;44.59
59337;BME280;45115;52.002;4.686;2022-09-21T12:36:26;102720.53;;;21.30;42.65
59337;BME280;45115;52.002;4.686;2022-09-21T12:38:54;102730.34;;;21.07;43.29
59337;BME280;45115;52.002;4.686;2022-09-21T12:41:31;102723.09;;;20.83;45.16
59337;BME280;45115;52.002;4.686;2022-09-21T12:44:04;102707.38;;;19.73;45.44
59337;BME280;45115;52.002;4.686;2022-09-21T12:46:39;102717.97;;;18.90;45.73
59337;BME280;45115;52.002;4.686;2022-09-21T12:49:15;102723.63;;;18.32;47.28
59337;BME280;45115;52.002;4.686;2022-09-21T12:51:47;102719.91;;;18.02;47.86
59337;BME280;45115;52.002;4.686;2022-09-21T12:54:21;102716.47;;;17.76;49.41
59337;BME280;45115;52.002;4.686;2022-09-21T12:56:54;102710.56;;;17.48;50.83
59337;BME280;45115;52.002;4.686;2022-09-21T12:59:32;102701.72;;;17.32;51.93
59337;BME280;45115;52.002;4.686;2022-09-21T13:02:13;102713.25;;;17.48;51.27
59337;BME280;45115;52.002;4.686;2022-09-21T13:04:52;102708.97;;;17.67;50.34
59337;BME280;45115;52.002;4.686;2022-09-21T13:10:31;102689.84;;;18.71;50.69
59337;BME280;45115;52.002;4.686;2022-09-21T13:13:04;102691.97;;;19.55;47.39
59337;BME280;45115;52.002;4.686;2022-09-21T13:15:41;102702.72;;;20.33;46.43
59337;BME280;45115;52.002;4.686;2022-09-21T13:18:17;102693.72;;;20.81;44.37